sensor_id;sensor_type;location;lat;lon;timestamp;temperature;humidity
5607;DHT22;2825;53.116;9.392;2022-10-16T00:01:27;12.70;99.90
5607;DHT22;2825;53.116;9.392;2022-10-16T00:03:54;12.60;99.90
5607;DHT22;2825;53.116;9.392;2022-10-16T00:06:21;12.60;99.90
5607;DHT22;2825;53.116;9.392;2022-10-16T00:08:48;12.60;99.90
5607;DHT22;2825;53.116;9.392;2022-10-16T00:11:22;12.60;99.90
5607;DHT22;2825;53.116;9.392;2022-10-16T00:13:50;12.60;99.90
5607;DHT22;2825;53.116;9.392;2022-10-16T00:16:16;12.50;99.90
5607;DHT22;2825;53.116;9.392;2022-10-16T00:18:42;12.50;99.90
5607;DHT22;2825;53.116;9.392;2022-10-16T00:21:15;12.50;99.90
5607;DHT22;2825;53.116;9.392;2022-10-16T00:23:42;12.40;99.90
5607;DHT22;2825;53.116;9.392;2022-10-16T00:26:10;12.40;99.90
5607;DHT22;2825;53.116;9.392;2022-10-16T00:28:50;12.40;99.90
5607;DHT22;2825;53.116;9.392;2022-10-16T00:31:18;12.30;99.90
5607;DHT22;2825;53.116;9.392;2022-10-16T00:33:45;12.30;99.90
5607;DHT22;2825;53.116;9.392;2022-10-16T00:36:13;12.30;99.90
5607;DHT22;2825;53.116;9.392;2022-10-16T00:38:39;12.30;99.90
5607;DHT22;2825;53.116;9.392;2022-10-16T00:41:07;12.30;99.90
5607;DHT22;2825;53.116;9.392;2022-10-16T00:43:37;12.30;99.90
5607;DHT22;2825;53.116;9.392;2022-10-16T00:46:09;12.30;99.90
5607;DHT22;2825;53.116;9.392;2022-10-16T00:48:36;12.30;99.90
5607;DHT22;2825;53.116;9.392;2022-10-16T00:51:02;12.20;99.90
5607;DHT22;2825;53.116;9.392;2022-10-16T00:53:30;12.30;99.90
5607;DHT22;2825;53.116;9.392;2022-10-16T00:55:55;12.20;99.90
5607;DHT22;2825;53.116;9.392;2022-10-16T00:58:21;12.20;99.90
5607;DHT22;2825;53.116;9.392;2022-10-16T01:00:47;12.20;99.90
5607;DHT22;2825;53.116;9.392;2022-10-16T01:11:27;12.10;99.90
5607;DHT22;2825;53.116;9.392;2022-10-16T01:13:57;12.00;99.90
5607;DHT22;2825;53.116;9.392;2022-10-16T01:17:04;12.00;99.90
5607;DHT22;2825;53.116;9.392;2022-10-16T01:19:52;12.00;99.90
5607;DHT22;2825;53.116;9.392;2022-10-16T01:22:23;12.00;99.90
5607;DHT22;2825;53.116;9.392;2022-10-16T01:24:53;12.00;99.90
5607;DHT22;2825;53.116;9.392;2022-10-16T01:35:19;12.00;99.90
5607;DHT22;2825;53.116;9.392;2022-10-16T01:40:26;12.00;99.90
5607;DHT22;2825;53.116;9.392;2022-10-16T01:43:02;11.90;99.90
5607;DHT22;2825;53.116;9.392;2022-10-16T01:45:31;11.90;99.90
5607;DHT22;2825;53.116;9.392;2022-10-16T01:47:59;11.90;99.90
5607;DHT22;2825;53.116;9.392;2022-10-16T01:50:26;11.90;99.90
5607;DHT22;2825;53.116;9.392;2022-10-16T01:52:53;11.90;99.90
5607;DHT22;2825;53.116;9.392;2022-10-16T01:55:29;11.80;99.90
5607;DHT22;2825;53.116;9.392;2022-10-16T01:57:57;11.80;99.90
5607;DHT22;2825;53.116;9.392;2022-10-16T02:00:26;11.80;99.90
5607;DHT22;2825;53.116;9.392;2022-10-16T02:02:53;11.80;99.90
5607;DHT22;2825;53.116;9.392;2022-10-16T02:05:40;11.80;99.90
5607;DHT22;2825;53.116;9.392;2022-10-16T02:08:07;11.80;99.90
5607;DHT22;2825;53.116;9.392;2022-10-16T02:10:35;11.80;99.90
5607;DHT22;2825;53.116;9.392;2022-10-16T02:13:23;11.70;99.90
5607;DHT22;2825;53.116;9.392;2022-10-16T02:15:49;11.70;99.90
5607;DHT22;2825;53.116;9.392;2022-10-16T02:18:15;11.70;99.90
5607;DHT22;2825;53.116;9.392;2022-10-16T02:21:00;11.70;99.90
5607;DHT22;2825;53.116;9.392;2022-10-16T02:23:57;11.70;99.90
5607;DHT22;2825;53.116;9.392;2022-10-16T02:26:28;11.70;99.90
5607;DHT22;2825;53.116;9.392;2022-10-16T02:29:00;11.60;99.90
5607;DHT22;2825;53.116;9.392;2022-10-16T02:31:28;11.60;99.90
5607;DHT22;2825;53.116;9.392;2022-10-16T02:33:58;11.60;99.90
5607;DHT22;2825;53.116;9.392;2022-10-16T02:36:25;11.60;99.90
5607;DHT22;2825;53.116;9.392;2022-10-16T02:38:52;11.60;99.90
5607;DHT22;2825;53.116;9.392;2022-10-16T02:41:19;11.60;99.90
5607;DHT22;2825;53.116;9.392;2022-10-16T02:43:45;11.50;99.90
5607;DHT22;2825;53.116;9.392;2022-10-16T02:46:11;11.50;99.90
5607;DHT22;2825;53.116;9.392;2022-10-16T02:48:37;11.50;99.90
5607;DHT22;2825;53.116;9.392;2022-10-16T02:51:03;11.50;99.90
5607;DHT22;2825;53.116;9.392;2022-10-16T02:53:28;11.50;99.90
5607;DHT22;2825;53.116;9.392;2022-10-16T02:55:54;11.40;99.90
5607;DHT22;2825;53.116;9.392;2022-10-16T02:58:19;11.40;99.90
5607;DHT22;2825;53.116;9.392;2022-10-16T03:00:45;11.40;99.90
5607;DHT22;2825;53.116;9.392;2022-10-16T03:03:11;11.40;99.90
5607;DHT22;2825;53.116;9.392;2022-10-16T03:05:36;11.30;99.90
5607;DHT22;2825;53.116;9.392;2022-10-16T03:08:02;11.30;99.90
5607;DHT22;2825;53.116;9.392;2022-10-16T03:10:28;11.30;99.90
5607;DHT22;2825;53.116;9.392;2022-10-16T03:12:53;11.20;99.90
5607;DHT22;2825;53.116;9.392;2022-10-16T03:15:19;11.20;99.90
5607;DHT22;2825;53.116;9.392;2022-10-16T03:17:45;11.30;99.90
5607;DHT22;2825;53.116;9.392;2022-10-16T03:20:11;11.20;99.90
5607;DHT22;2825;53.116;9.392;2022-10-16T03:22:36;11.20;99.90
5607;DHT22;2825;53.116;9.392;2022-10-16T03:25:02;11.20;99.90
5607;DHT22;2825;53.116;9.392;2022-10-16T03:27:28;11.20;99.90
5607;DHT22;2825;53.116;9.392;2022-10-16T03:29:53;11.20;99.90
5607;DHT22;2825;53.116;9.392;2022-10-16T03:32:19;11.20;99.90
5607;DHT22;2825;53.116;9.392;2022-10-16T03:34:45;11.20;99.90
5607;DHT22;2825;53.116;9.392;2022-10-16T03:37:11;11.20;99.90
5607;DHT22;2825;53.116;9.392;2022-10-16T03:39:37;11.20;99.90
5607;DHT22;2825;53.116;9.392;2022-10-16T03:42:03;11.20;99.90
5607;DHT22;2825;53.116;9.392;2022-10-16T03:44:28;11.20;99.90
5607;DHT22;2825;53.116;9.392;2022-10-16T03:46:54;11.20;99.90
5607;DHT22;2825;53.116;9.392;2022-10-16T03:49:19;11.20;99.90
5607;DHT22;2825;53.116;9.392;2022-10-16T03:51:45;11.20;99.90
5607;DHT22;2825;53.116;9.392;2022-10-16T03:54:11;11.20;99.90
5607;DHT22;2825;53.116;9.392;2022-10-16T03:56:36;11.20;99.90
5607;DHT22;2825;53.116;9.392;2022-10-16T03:59:02;11.20;99.90
5607;DHT22;2825;53.116;9.392;2022-10-16T04:01:28;11.20;99.90
5607;DHT22;2825;53.116;9.392;2022-10-16T04:03:53;11.20;99.90
5607;DHT22;2825;53.116;9.392;2022-10-16T04:06:19;11.20;99.90
5607;DHT22;2825;53.116;9.392;2022-10-16T04:08:45;11.20;99.90
5607;DHT22;2825;53.116;9.392;2022-10-16T04:11:10;11.20;99.90
5607;DHT22;2825;53.116;9.392;2022-10-16T04:13:36;11.20;99.90
5607;DHT22;2825;53.116;9.392;2022-10-16T04:16:02;11.20;99.90
5607;DHT22;2825;53.116;9.392;2022-10-16T04:18:28;11.20;99.90
5607;DHT22;2825;53.116;9.392;2022-10-16T04:20:54;11.10;99.90
5607;DHT22;2825;53.116;9.392;2022-10-16T04:23:20;11.20;99.90
5607;DHT22;2825;53.116;9.392;2022-10-16T04:25:46;11.20;99.90
5607;DHT22;2825;53.116;9.392;2022-10-16T04:28:11;11.20;99.90
5607;DHT22;2825;53.116;9.392;2022-10-16T04:30:38;11.20;99.90
5607;DHT22;2825;53.116;9.392;2022-10-16T04:33:04;11.20;99.90
5607;DHT22;2825;53.116;9.392;2022-10-16T04:35:30;11.20;99.90
5607;DHT22;2825;53.116;9.392;2022-10-16T04:37:57;11.30;99.90
5607;DHT22;2825;53.116;9.392;2022-10-16T04:40:23;11.30;99.90
5607;DHT22;2825;53.116;9.392;2022-10-16T04:42:49;11.30;99.90
5607;DHT22;2825;53.116;9.392;2022-10-16T04:45:15;11.40;99.90
5607;DHT22;2825;53.116;9.392;2022-10-16T04:47:40;11.40;99.90
5607;DHT22;2825;53.116;9.392;2022-10-16T04:50:06;11.40;99.90
5607;DHT22;2825;53.116;9.392;2022-10-16T04:52:32;11.40;99.90
5607;DHT22;2825;53.116;9.392;2022-10-16T04:54:58;11.30;99.90
5607;DHT22;2825;53.116;9.392;2022-10-16T04:57:27;11.30;99.90
5607;DHT22;2825;53.116;9.392;2022-10-16T04:59:53;11.30;99.90
5607;DHT22;2825;53.116;9.392;2022-10-16T05:02:19;11.30;99.90
5607;DHT22;2825;53.116;9.392;2022-10-16T05:04:44;11.30;99.90
5607;DHT22;2825;53.116;9.392;2022-10-16T05:07:10;11.30;99.90
5607;DHT22;2825;53.116;9.392;2022-10-16T05:09:35;11.30;99.90
5607;DHT22;2825;53.116;9.392;2022-10-16T05:12:01;11.30;99.90
5607;DHT22;2825;53.116;9.392;2022-10-16T05:14:29;11.30;99.90
5607;DHT22;2825;53.116;9.392;2022-10-16T05:16:54;11.30;99.90
5607;DHT22;2825;53.116;9.392;2022-10-16T05:19:20;11.30;99.90
5607;DHT22;2825;53.116;9.392;2022-10-16T05:21:46;11.40;99.90
5607;DHT22;2825;53.116;9.392;2022-10-16T05:24:12;11.40;99.90
5607;DHT22;2825;53.116;9.392;2022-10-16T05:26:37;11.40;99.90
5607;DHT22;2825;53.116;9.392;2022-10-16T05:29:03;11.40;99.90
5607;DHT22;2825;53.116;9.392;2022-10-16T05:31:29;11.40;99.90
5607;DHT22;2825;53.116;9.392;2022-10-16T05:33:58;11.40;99.90
5607;DHT22;2825;53.116;9.392;2022-10-16T05:36:25;11.40;99.90
5607;DHT22;2825;53.116;9.392;2022-10-16T05:38:51;11.40;99.90
5607;DHT22;2825;53.116;9.392;2022-10-16T05:41:17;11.40;99.90
5607;DHT22;2825;53.116;9.392;2022-10-16T05:43:47;11.40;99.90
5607;DHT22;2825;53.116;9.392;2022-10-16T05:46:13;11.50;99.90
5607;DHT22;2825;53.116;9.392;2022-10-16T05:48:39;11.50;99.90
5607;DHT22;2825;53.116;9.392;2022-10-16T05:51:10;11.50;99.90
5607;DHT22;2825;53.116;9.392;2022-10-16T05:53:37;11.50;99.90
5607;DHT22;2825;53.116;9.392;2022-10-16T05:56:03;11.50;99.90
5607;DHT22;2825;53.116;9.392;2022-10-16T05:58:31;11.50;99.90
5607;DHT22;2825;53.116;9.392;2022-10-16T06:01:05;11.50;99.90
5607;DHT22;2825;53.116;9.392;2022-10-16T06:03:32;11.50;99.90
5607;DHT22;2825;53.116;9.392;2022-10-16T06:05:58;11.50;99.90
5607;DHT22;2825;53.116;9.392;2022-10-16T06:08:24;11.50;99.90
5607;DHT22;2825;53.116;9.392;2022-10-16T06:11:01;11.50;99.90
5607;DHT22;2825;53.116;9.392;2022-10-16T06:13:27;11.50;99.90
5607;DHT22;2825;53.116;9.392;2022-10-16T06:15:53;11.50;99.90
5607;DHT22;2825;53.116;9.392;2022-10-16T06:18:18;11.50;99.90
5607;DHT22;2825;53.116;9.392;2022-10-16T06:20:44;11.50;99.90
5607;DHT22;2825;53.116;9.392;2022-10-16T06:23:10;11.50;99.90
5607;DHT22;2825;53.116;9.392;2022-10-16T06:25:35;11.50;99.90
5607;DHT22;2825;53.116;9.392;2022-10-16T06:28:01;11.50;99.90
5607;DHT22;2825;53.116;9.392;2022-10-16T06:30:26;11.50;99.90
5607;DHT22;2825;53.116;9.392;2022-10-16T06:32:52;11.50;99.90
5607;DHT22;2825;53.116;9.392;2022-10-16T06:35:18;11.50;99.90
5607;DHT22;2825;53.116;9.392;2022-10-16T06:37:43;11.50;99.90
5607;DHT22;2825;53.116;9.392;2022-10-16T06:40:09;11.60;99.90
5607;DHT22;2825;53.116;9.392;2022-10-16T06:42:35;11.60;99.90
5607;DHT22;2825;53.116;9.392;2022-10-16T06:45:00;11.70;99.90
5607;DHT22;2825;53.116;9.392;2022-10-16T06:47:27;11.70;99.90
5607;DHT22;2825;53.116;9.392;2022-10-16T06:49:52;11.70;99.90
5607;DHT22;2825;53.116;9.392;2022-10-16T06:52:18;11.70;99.90
5607;DHT22;2825;53.116;9.392;2022-10-16T06:54:44;11.80;99.90
5607;DHT22;2825;53.116;9.392;2022-10-16T06:57:09;11.80;99.90
5607;DHT22;2825;53.116;9.392;2022-10-16T06:59:35;11.90;99.90
5607;DHT22;2825;53.116;9.392;2022-10-16T07:02:01;11.90;99.90
5607;DHT22;2825;53.116;9.392;2022-10-16T07:04:26;11.90;99.90
5607;DHT22;2825;53.116;9.392;2022-10-16T07:06:52;12.00;99.90
5607;DHT22;2825;53.116;9.392;2022-10-16T07:09:17;12.00;99.90
5607;DHT22;2825;53.116;9.392;2022-10-16T07:11:43;12.10;99.90
5607;DHT22;2825;53.116;9.392;2022-10-16T07:14:17;12.10;99.90
5607;DHT22;2825;53.116;9.392;2022-10-16T07:16:43;12.20;99.90
5607;DHT22;2825;53.116;9.392;2022-10-16T07:19:09;12.20;99.90
5607;DHT22;2825;53.116;9.392;2022-10-16T07:21:37;12.30;99.90
5607;DHT22;2825;53.116;9.392;2022-10-16T07:24:04;12.40;99.90
5607;DHT22;2825;53.116;9.392;2022-10-16T07:26:32;12.40;99.90
5607;DHT22;2825;53.116;9.392;2022-10-16T07:28:58;12.50;99.90
5607;DHT22;2825;53.116;9.392;2022-10-16T07:31:24;12.60;99.90
5607;DHT22;2825;53.116;9.392;2022-10-16T07:33:51;12.60;99.90
5607;DHT22;2825;53.116;9.392;2022-10-16T07:36:18;12.70;99.90
5607;DHT22;2825;53.116;9.392;2022-10-16T07:38:44;12.70;99.90
5607;DHT22;2825;53.116;9.392;2022-10-16T07:41:15;12.80;99.90
5607;DHT22;2825;53.116;9.392;2022-10-16T07:43:46;12.80;99.90
5607;DHT22;2825;53.116;9.392;2022-10-16T07:46:12;12.90;99.90
5607;DHT22;2825;53.116;9.392;2022-10-16T07:48:38;13.00;99.90
5607;DHT22;2825;53.116;9.392;2022-10-16T07:51:05;13.10;99.90
5607;DHT22;2825;53.116;9.392;2022-10-16T07:53:32;13.20;99.90
5607;DHT22;2825;53.116;9.392;2022-10-16T07:56:02;13.30;99.90
5607;DHT22;2825;53.116;9.392;2022-10-16T07:58:29;13.50;99.90
5607;DHT22;2825;53.116;9.392;2022-10-16T08:00:55;13.70;99.90
5607;DHT22;2825;53.116;9.392;2022-10-16T08:03:22;14.00;99.90
5607;DHT22;2825;53.116;9.392;2022-10-16T08:05:47;14.20;99.90
5607;DHT22;2825;53.116;9.392;2022-10-16T08:08:15;14.30;99.90
5607;DHT22;2825;53.116;9.392;2022-10-16T08:10:41;14.40;99.90
5607;DHT22;2825;53.116;9.392;2022-10-16T08:13:07;14.40;99.90
5607;DHT22;2825;53.116;9.392;2022-10-16T08:15:32;14.30;99.90
5607;DHT22;2825;53.116;9.392;2022-10-16T08:18:03;14.30;99.90
5607;DHT22;2825;53.116;9.392;2022-10-16T08:20:30;14.30;99.90
5607;DHT22;2825;53.116;9.392;2022-10-16T08:22:57;14.30;99.90
5607;DHT22;2825;53.116;9.392;2022-10-16T08:25:24;14.40;99.90
5607;DHT22;2825;53.116;9.392;2022-10-16T08:27:50;14.50;99.90
5607;DHT22;2825;53.116;9.392;2022-10-16T08:30:18;14.50;99.90
5607;DHT22;2825;53.116;9.392;2022-10-16T08:32:44;14.50;99.90
5607;DHT22;2825;53.116;9.392;2022-10-16T08:35:10;14.70;99.90
5607;DHT22;2825;53.116;9.392;2022-10-16T08:37:37;14.80;99.90
5607;DHT22;2825;53.116;9.392;2022-10-16T08:40:04;14.90;99.90
5607;DHT22;2825;53.116;9.392;2022-10-16T08:48:18;15.50;99.90
5607;DHT22;2825;53.116;9.392;2022-10-16T08:50:47;15.80;99.90
5607;DHT22;2825;53.116;9.392;2022-10-16T08:53:21;16.00;99.90
5607;DHT22;2825;53.116;9.392;2022-10-16T08:55:52;16.10;99.90
5607;DHT22;2825;53.116;9.392;2022-10-16T08:58:19;16.20;99.90
5607;DHT22;2825;53.116;9.392;2022-10-16T09:01:10;16.20;99.90
5607;DHT22;2825;53.116;9.392;2022-10-16T09:22:33;16.70;99.90
5607;DHT22;2825;53.116;9.392;2022-10-16T09:25:11;16.80;99.90
5607;DHT22;2825;53.116;9.392;2022-10-16T09:27:38;16.80;99.90
5607;DHT22;2825;53.116;9.392;2022-10-16T09:30:15;16.90;99.90
5607;DHT22;2825;53.116;9.392;2022-10-16T09:32:42;17.00;99.90
5607;DHT22;2825;53.116;9.392;2022-10-16T09:35:15;17.00;99.90
5607;DHT22;2825;53.116;9.392;2022-10-16T09:37:44;17.00;99.90
5607;DHT22;2825;53.116;9.392;2022-10-16T09:40:23;17.00;99.90
5607;DHT22;2825;53.116;9.392;2022-10-16T09:42:49;17.10;99.90
5607;DHT22;2825;53.116;9.392;2022-10-16T09:45:22;17.10;99.90
5607;DHT22;2825;53.116;9.392;2022-10-16T09:47:48;17.10;99.90
5607;DHT22;2825;53.116;9.392;2022-10-16T09:50:26;17.20;99.90
5607;DHT22;2825;53.116;9.392;2022-10-16T09:53:25;17.20;99.90
5607;DHT22;2825;53.116;9.392;2022-10-16T09:55:53;17.30;99.90
5607;DHT22;2825;53.116;9.392;2022-10-16T09:58:23;17.30;99.90
5607;DHT22;2825;53.116;9.392;2022-10-16T10:00:51;17.30;99.90
5607;DHT22;2825;53.116;9.392;2022-10-16T10:03:39;17.40;99.90
5607;DHT22;2825;53.116;9.392;2022-10-16T10:06:33;17.40;99.90
5607;DHT22;2825;53.116;9.392;2022-10-16T10:09:24;17.40;99.90
5607;DHT22;2825;53.116;9.392;2022-10-16T10:12:00;17.40;99.90
5607;DHT22;2825;53.116;9.392;2022-10-16T10:14:35;17.50;99.90
5607;DHT22;2825;53.116;9.392;2022-10-16T10:19:28;17.50;99.90
5607;DHT22;2825;53.116;9.392;2022-10-16T10:21:54;17.50;99.90
5607;DHT22;2825;53.116;9.392;2022-10-16T10:24:19;17.50;99.90
5607;DHT22;2825;53.116;9.392;2022-10-16T10:26:56;17.50;99.90
5607;DHT22;2825;53.116;9.392;2022-10-16T10:35:07;17.40;99.90
5607;DHT22;2825;53.116;9.392;2022-10-16T10:43:55;17.50;99.90
5607;DHT22;2825;53.116;9.392;2022-10-16T10:57:53;17.70;99.90
5607;DHT22;2825;53.116;9.392;2022-10-16T11:05:55;17.70;99.90
5607;DHT22;2825;53.116;9.392;2022-10-16T11:08:29;17.70;99.90
5607;DHT22;2825;53.116;9.392;2022-10-16T11:11:00;17.70;99.90
5607;DHT22;2825;53.116;9.392;2022-10-16T11:13:35;17.70;99.90
5607;DHT22;2825;53.116;9.392;2022-10-16T11:16:16;17.70;99.90
5607;DHT22;2825;53.116;9.392;2022-10-16T11:19:03;17.70;99.90
5607;DHT22;2825;53.116;9.392;2022-10-16T11:21:35;17.70;99.90
5607;DHT22;2825;53.116;9.392;2022-10-16T11:24:09;17.70;99.90
5607;DHT22;2825;53.116;9.392;2022-10-16T11:26:41;17.60;99.90
5607;DHT22;2825;53.116;9.392;2022-10-16T11:29:15;17.60;99.90
5607;DHT22;2825;53.116;9.392;2022-10-16T11:31:57;17.60;99.90
5607;DHT22;2825;53.116;9.392;2022-10-16T11:37:10;17.70;99.90
5607;DHT22;2825;53.116;9.392;2022-10-16T11:39:38;17.70;99.90
5607;DHT22;2825;53.116;9.392;2022-10-16T11:42:30;17.80;99.90
5607;DHT22;2825;53.116;9.392;2022-10-16T11:45:08;17.80;99.90
5607;DHT22;2825;53.116;9.392;2022-10-16T11:47:54;17.90;99.90
5607;DHT22;2825;53.116;9.392;2022-10-16T11:55:40;17.90;99.90
5607;DHT22;2825;53.116;9.392;2022-10-16T12:01:41;17.90;99.90
5607;DHT22;2825;53.116;9.392;2022-10-16T12:04:36;17.90;99.90
5607;DHT22;2825;53.116;9.392;2022-10-16T12:07:38;17.90;99.90
5607;DHT22;2825;53.116;9.392;2022-10-16T12:10:28;18.00;99.90
5607;DHT22;2825;53.116;9.392;2022-10-16T12:12:54;18.10;99.90
5607;DHT22;2825;53.116;9.392;2022-10-16T12:15:25;18.10;99.90
5607;DHT22;2825;53.116;9.392;2022-10-16T12:17:52;18.20;99.90
5607;DHT22;2825;53.116;9.392;2022-10-16T12:28:06;18.30;99.90
5607;DHT22;2825;53.116;9.392;2022-10-16T12:30:35;18.30;99.90
5607;DHT22;2825;53.116;9.392;2022-10-16T12:33:15;18.20;99.90
5607;DHT22;2825;53.116;9.392;2022-10-16T12:35:44;18.10;99.90
5607;DHT22;2825;53.116;9.392;2022-10-16T12:38:35;18.10;99.90
5607;DHT22;2825;53.116;9.392;2022-10-16T12:41:08;18.10;99.90
5607;DHT22;2825;53.116;9.392;2022-10-16T12:43:40;18.00;99.90
5607;DHT22;2825;53.116;9.392;2022-10-16T12:48:36;17.80;99.90
5607;DHT22;2825;53.116;9.392;2022-10-16T12:53:46;17.80;99.90
5607;DHT22;2825;53.116;9.392;2022-10-16T12:56:20;17.70;99.90
5607;DHT22;2825;53.116;9.392;2022-10-16T13:01:39;17.70;99.90
5607;DHT22;2825;53.116;9.392;2022-10-16T13:04:37;17.70;99.90
5607;DHT22;2825;53.116;9.392;2022-10-16T13:21:42;18.00;99.90
5607;DHT22;2825;53.116;9.392;2022-10-16T13:26:55;18.10;99.90
5607;DHT22;2825;53.116;9.392;2022-10-16T13:29:23;18.10;99.90
5607;DHT22;2825;53.116;9.392;2022-10-16T13:31:49;18.10;99.90
5607;DHT22;2825;53.116;9.392;2022-10-16T13:34:21;18.10;99.90
5607;DHT22;2825;53.116;9.392;2022-10-16T13:36:52;18.10;99.90
5607;DHT22;2825;53.116;9.392;2022-10-16T13:39:29;18.10;99.90
5607;DHT22;2825;53.116;9.392;2022-10-16T13:44:27;18.20;99.90
5607;DHT22;2825;53.116;9.392;2022-10-16T13:47:00;18.20;99.90
5607;DHT22;2825;53.116;9.392;2022-10-16T13:49:25;18.20;99.90
5607;DHT22;2825;53.116;9.392;2022-10-16T13:51:59;18.10;99.90
5607;DHT22;2825;53.116;9.392;2022-10-16T13:54:26;18.10;99.90
5607;DHT22;2825;53.116;9.392;2022-10-16T13:56:54;18.10;99.90
5607;DHT22;2825;53.116;9.392;2022-10-16T13:59:24;18.10;99.90
5607;DHT22;2825;53.116;9.392;2022-10-16T14:01:52;18.10;99.90
5607;DHT22;2825;53.116;9.392;2022-10-16T14:04:19;18.10;99.90
5607;DHT22;2825;53.116;9.392;2022-10-16T14:06:46;18.00;99.90
5607;DHT22;2825;53.116;9.392;2022-10-16T14:09:24;18.00;99.90
5607;DHT22;2825;53.116;9.392;2022-10-16T14:12:11;18.00;99.90
5607;DHT22;2825;53.116;9.392;2022-10-16T14:14:42;17.90;99.90
5607;DHT22;2825;53.116;9.392;2022-10-16T14:17:24;17.80;99.90
5607;DHT22;2825;53.116;9.392;2022-10-16T14:19:54;17.80;99.90
5607;DHT22;2825;53.116;9.392;2022-10-16T14:22:36;17.70;99.90
5607;DHT22;2825;53.116;9.392;2022-10-16T14:27:56;17.70;99.90
5607;DHT22;2825;53.116;9.392;2022-10-16T14:30:22;17.70;99.90
5607;DHT22;2825;53.116;9.392;2022-10-16T14:33:05;17.70;99.90
5607;DHT22;2825;53.116;9.392;2022-10-16T14:35:35;17.70;99.90
5607;DHT22;2825;53.116;9.392;2022-10-16T14:38:03;17.60;99.90
5607;DHT22;2825;53.116;9.392;2022-10-16T14:40:32;17.60;99.90
5607;DHT22;2825;53.116;9.392;2022-10-16T14:42:59;17.60;99.90
5607;DHT22;2825;53.116;9.392;2022-10-16T14:45:31;17.60;99.90
5607;DHT22;2825;53.116;9.392;2022-10-16T14:48:00;17.60;99.90
5607;DHT22;2825;53.116;9.392;2022-10-16T14:50:27;17.60;99.90
5607;DHT22;2825;53.116;9.392;2022-10-16T14:52:53;17.60;99.90
5607;DHT22;2825;53.116;9.392;2022-10-16T14:55:18;17.60;99.90
5607;DHT22;2825;53.116;9.392;2022-10-16T14:57:45;17.60;99.90
5607;DHT22;2825;53.116;9.392;2022-10-16T15:00:19;17.60;99.90
5607;DHT22;2825;53.116;9.392;2022-10-16T15:02:45;17.60;99.90
5607;DHT22;2825;53.116;9.392;2022-10-16T15:05:23;17.60;99.90
5607;DHT22;2825;53.116;9.392;2022-10-16T15:07:50;17.50;99.90
5607;DHT22;2825;53.116;9.392;2022-10-16T15:10:17;17.50;99.90
5607;DHT22;2825;53.116;9.392;2022-10-16T15:12:43;17.50;99.90
5607;DHT22;2825;53.116;9.392;2022-10-16T15:17:51;17.40;99.90
5607;DHT22;2825;53.116;9.392;2022-10-16T15:20:23;17.30;99.90
5607;DHT22;2825;53.116;9.392;2022-10-16T15:22:49;17.30;99.90
5607;DHT22;2825;53.116;9.392;2022-10-16T15:27:46;17.20;99.90
5607;DHT22;2825;53.116;9.392;2022-10-16T15:30:11;17.10;99.90
5607;DHT22;2825;53.116;9.392;2022-10-16T15:32:37;17.10;99.90
5607;DHT22;2825;53.116;9.392;2022-10-16T15:35:03;17.00;99.90
5607;DHT22;2825;53.116;9.392;2022-10-16T15:37:28;17.00;99.90
5607;DHT22;2825;53.116;9.392;2022-10-16T15:39:54;16.90;99.90
5607;DHT22;2825;53.116;9.392;2022-10-16T15:42:20;16.80;99.90
5607;DHT22;2825;53.116;9.392;2022-10-16T15:44:45;16.80;99.90
5607;DHT22;2825;53.116;9.392;2022-10-16T15:47:11;16.70;99.90
5607;DHT22;2825;53.116;9.392;2022-10-16T15:49:38;16.70;99.90
5607;DHT22;2825;53.116;9.392;2022-10-16T15:52:03;16.60;99.90
5607;DHT22;2825;53.116;9.392;2022-10-16T15:54:29;16.60;99.90
5607;DHT22;2825;53.116;9.392;2022-10-16T15:56:54;16.50;99.90
5607;DHT22;2825;53.116;9.392;2022-10-16T15:59:20;16.40;99.90
5607;DHT22;2825;53.116;9.392;2022-10-16T16:01:46;16.30;99.90
5607;DHT22;2825;53.116;9.392;2022-10-16T16:04:11;16.20;99.90
5607;DHT22;2825;53.116;9.392;2022-10-16T16:06:37;16.20;99.90
5607;DHT22;2825;53.116;9.392;2022-10-16T16:09:05;16.10;99.90
5607;DHT22;2825;53.116;9.392;2022-10-16T16:11:30;15.90;99.90
5607;DHT22;2825;53.116;9.392;2022-10-16T16:13:58;15.80;99.90
5607;DHT22;2825;53.116;9.392;2022-10-16T16:16:24;15.80;99.90
5607;DHT22;2825;53.116;9.392;2022-10-16T16:18:52;15.70;99.90
5607;DHT22;2825;53.116;9.392;2022-10-16T16:21:18;15.60;99.90
5607;DHT22;2825;53.116;9.392;2022-10-16T16:23:44;15.50;99.90
5607;DHT22;2825;53.116;9.392;2022-10-16T16:26:27;15.40;99.90
5607;DHT22;2825;53.116;9.392;2022-10-16T16:28:54;15.30;99.90
5607;DHT22;2825;53.116;9.392;2022-10-16T16:31:24;15.20;99.90
5607;DHT22;2825;53.116;9.392;2022-10-16T16:33:50;15.10;99.90
5607;DHT22;2825;53.116;9.392;2022-10-16T16:36:17;15.00;99.90
5607;DHT22;2825;53.116;9.392;2022-10-16T16:38:44;14.90;99.90
5607;DHT22;2825;53.116;9.392;2022-10-16T16:41:14;14.80;99.90
5607;DHT22;2825;53.116;9.392;2022-10-16T16:43:40;14.70;99.90
5607;DHT22;2825;53.116;9.392;2022-10-16T16:46:06;14.60;99.90
5607;DHT22;2825;53.116;9.392;2022-10-16T16:48:32;14.50;99.90
5607;DHT22;2825;53.116;9.392;2022-10-16T16:51:03;14.40;99.90
5607;DHT22;2825;53.116;9.392;2022-10-16T16:53:29;14.30;99.90
5607;DHT22;2825;53.116;9.392;2022-10-16T16:55:54;14.20;99.90
5607;DHT22;2825;53.116;9.392;2022-10-16T16:58:20;14.10;99.90
5607;DHT22;2825;53.116;9.392;2022-10-16T17:00:46;14.00;99.90
5607;DHT22;2825;53.116;9.392;2022-10-16T17:03:12;13.90;99.90
5607;DHT22;2825;53.116;9.392;2022-10-16T17:05:38;13.80;99.90
5607;DHT22;2825;53.116;9.392;2022-10-16T17:08:06;13.70;99.90
5607;DHT22;2825;53.116;9.392;2022-10-16T17:10:32;13.60;99.90
5607;DHT22;2825;53.116;9.392;2022-10-16T17:12:58;13.60;99.90
5607;DHT22;2825;53.116;9.392;2022-10-16T17:15:24;13.50;99.90
5607;DHT22;2825;53.116;9.392;2022-10-16T17:17:49;13.40;99.90
5607;DHT22;2825;53.116;9.392;2022-10-16T17:20:15;13.30;99.90
5607;DHT22;2825;53.116;9.392;2022-10-16T17:22:41;13.20;99.90
5607;DHT22;2825;53.116;9.392;2022-10-16T17:25:07;13.10;99.90
5607;DHT22;2825;53.116;9.392;2022-10-16T17:27:33;13.10;99.90
5607;DHT22;2825;53.116;9.392;2022-10-16T17:30:00;13.00;99.90
5607;DHT22;2825;53.116;9.392;2022-10-16T17:32:26;13.00;99.90
5607;DHT22;2825;53.116;9.392;2022-10-16T17:34:52;12.90;99.90
5607;DHT22;2825;53.116;9.392;2022-10-16T17:37:18;12.80;99.90
5607;DHT22;2825;53.116;9.392;2022-10-16T17:39:43;12.70;99.90
5607;DHT22;2825;53.116;9.392;2022-10-16T17:42:09;12.60;99.90
5607;DHT22;2825;53.116;9.392;2022-10-16T17:44:35;12.60;99.90
5607;DHT22;2825;53.116;9.392;2022-10-16T17:47:00;12.50;99.90
5607;DHT22;2825;53.116;9.392;2022-10-16T17:49:26;12.50;99.90
5607;DHT22;2825;53.116;9.392;2022-10-16T17:51:53;12.40;99.90
5607;DHT22;2825;53.116;9.392;2022-10-16T17:54:19;12.40;99.90
5607;DHT22;2825;53.116;9.392;2022-10-16T17:56:45;12.30;99.90
5607;DHT22;2825;53.116;9.392;2022-10-16T17:59:12;12.20;99.90
5607;DHT22;2825;53.116;9.392;2022-10-16T18:01:38;12.10;99.90
5607;DHT22;2825;53.116;9.392;2022-10-16T18:04:10;12.10;99.90
5607;DHT22;2825;53.116;9.392;2022-10-16T18:06:38;12.00;99.90
5607;DHT22;2825;53.116;9.392;2022-10-16T18:09:07;12.00;99.90
5607;DHT22;2825;53.116;9.392;2022-10-16T18:11:34;11.90;99.90
5607;DHT22;2825;53.116;9.392;2022-10-16T18:14:00;11.90;99.90
5607;DHT22;2825;53.116;9.392;2022-10-16T18:16:28;11.80;99.90
5607;DHT22;2825;53.116;9.392;2022-10-16T18:18:55;11.80;99.90
5607;DHT22;2825;53.116;9.392;2022-10-16T18:21:25;11.80;99.90
5607;DHT22;2825;53.116;9.392;2022-10-16T18:23:52;11.80;99.90